sensor_id;sensor_type;location;lat;lon;timestamp;P1;durP1;ratioP1;P2;durP2;ratioP2
55212;SDS011;41083;52.932;6.674;2023-07-30T00:01:11;6.68;;;1.73;;
55212;SDS011;41083;52.932;6.674;2023-07-30T00:03:37;4.80;;;1.73;;
55212;SDS011;41083;52.932;6.674;2023-07-30T00:06:02;4.97;;;1.50;;
55212;SDS011;41083;52.932;6.674;2023-07-30T00:08:28;4.35;;;1.35;;
55212;SDS011;41083;52.932;6.674;2023-07-30T00:10:54;3.58;;;1.58;;
55212;SDS011;41083;52.932;6.674;2023-07-30T00:13:22;4.15;;;1.50;;
55212;SDS011;41083;52.932;6.674;2023-07-30T00:15:48;7.75;;;2.08;;
55212;SDS011;41083;52.932;6.674;2023-07-30T00:18:14;3.47;;;1.40;;
55212;SDS011;41083;52.932;6.674;2023-07-30T00:20:40;6.15;;;1.80;;
55212;SDS011;41083;52.932;6.674;2023-07-30T00:23:06;5.30;;;1.63;;
55212;SDS011;41083;52.932;6.674;2023-07-30T00:25:32;6.30;;;1.40;;
55212;SDS011;41083;52.932;6.674;2023-07-30T00:27:57;4.65;;;1.77;;
55212;SDS011;41083;52.932;6.674;2023-07-30T00:30:23;3.92;;;1.83;;
55212;SDS011;41083;52.932;6.674;2023-07-30T00:32:49;5.97;;;1.38;;
55212;SDS011;41083;52.932;6.674;2023-07-30T00:35:14;3.72;;;1.48;;
55212;SDS011;41083;52.932;6.674;2023-07-30T00:37:40;8.15;;;1.80;;
55212;SDS011;41083;52.932;6.674;2023-07-30T00:40:06;8.05;;;1.50;;
55212;SDS011;41083;52.932;6.674;2023-07-30T00:42:32;3.28;;;1.38;;
55212;SDS011;41083;52.932;6.674;2023-07-30T00:44:57;7.03;;;1.80;;
55212;SDS011;41083;52.932;6.674;2023-07-30T00:47:23;7.90;;;1.85;;
55212;SDS011;41083;52.932;6.674;2023-07-30T00:49:49;4.90;;;1.92;;
55212;SDS011;41083;52.932;6.674;2023-07-30T00:52:18;7.10;;;1.77;;
55212;SDS011;41083;52.932;6.674;2023-07-30T00:54:49;6.32;;;1.50;;
55212;SDS011;41083;52.932;6.674;2023-07-30T00:57:18;5.20;;;1.35;;
55212;SDS011;41083;52.932;6.674;2023-07-30T00:59:44;8.18;;;1.67;;
55212;SDS011;41083;52.932;6.674;2023-07-30T01:02:11;5.40;;;1.65;;
55212;SDS011;41083;52.932;6.674;2023-07-30T01:04:37;7.18;;;1.30;;
55212;SDS011;41083;52.932;6.674;2023-07-30T01:07:04;5.15;;;1.65;;
55212;SDS011;41083;52.932;6.674;2023-07-30T01:09:30;3.28;;;1.08;;
55212;SDS011;41083;52.932;6.674;2023-07-30T01:11:57;5.50;;;1.77;;
55212;SDS011;41083;52.932;6.674;2023-07-30T01:14:23;5.07;;;1.50;;
55212;SDS011;41083;52.932;6.674;2023-07-30T01:16:51;7.80;;;1.70;;
55212;SDS011;41083;52.932;6.674;2023-07-30T01:19:17;4.53;;;1.60;;
55212;SDS011;41083;52.932;6.674;2023-07-30T01:21:43;6.22;;;1.77;;
55212;SDS011;41083;52.932;6.674;2023-07-30T01:24:09;4.53;;;1.52;;
55212;SDS011;41083;52.932;6.674;2023-07-30T01:26:39;8.30;;;1.60;;
55212;SDS011;41083;52.932;6.674;2023-07-30T01:29:11;6.13;;;1.45;;
55212;SDS011;41083;52.932;6.674;2023-07-30T01:31:47;5.68;;;1.55;;
55212;SDS011;41083;52.932;6.674;2023-07-30T01:34:19;7.78;;;1.85;;
55212;SDS011;41083;52.932;6.674;2023-07-30T01:36:45;5.70;;;1.88;;
55212;SDS011;41083;52.932;6.674;2023-07-30T01:39:13;5.53;;;1.45;;
55212;SDS011;41083;52.932;6.674;2023-07-30T01:41:40;3.42;;;1.77;;
55212;SDS011;41083;52.932;6.674;2023-07-30T01:44:06;7.05;;;1.45;;
55212;SDS011;41083;52.932;6.674;2023-07-30T01:46:32;7.82;;;1.65;;
55212;SDS011;41083;52.932;6.674;2023-07-30T01:48:58;8.35;;;1.75;;
55212;SDS011;41083;52.932;6.674;2023-07-30T01:51:23;10.30;;;1.52;;
55212;SDS011;41083;52.932;6.674;2023-07-30T01:53:49;8.40;;;1.95;;
55212;SDS011;41083;52.932;6.674;2023-07-30T01:56:14;5.28;;;1.58;;
55212;SDS011;41083;52.932;6.674;2023-07-30T01:58:40;4.65;;;1.88;;
55212;SDS011;41083;52.932;6.674;2023-07-30T02:01:05;8.52;;;1.40;;
55212;SDS011;41083;52.932;6.674;2023-07-30T02:03:31;5.03;;;1.63;;
55212;SDS011;41083;52.932;6.674;2023-07-30T02:05:56;5.57;;;1.75;;
55212;SDS011;41083;52.932;6.674;2023-07-30T02:08:22;6.07;;;1.75;;
55212;SDS011;41083;52.932;6.674;2023-07-30T02:10:54;9.75;;;1.85;;
55212;SDS011;41083;52.932;6.674;2023-07-30T02:13:21;3.42;;;1.23;;
55212;SDS011;41083;52.932;6.674;2023-07-30T02:15:47;6.40;;;1.67;;
55212;SDS011;41083;52.932;6.674;2023-07-30T02:18:12;5.95;;;1.63;;
55212;SDS011;41083;52.932;6.674;2023-07-30T02:20:38;4.55;;;1.42;;
55212;SDS011;41083;52.932;6.674;2023-07-30T02:23:03;6.18;;;1.60;;
55212;SDS011;41083;52.932;6.674;2023-07-30T02:25:29;5.97;;;1.48;;
55212;SDS011;41083;52.932;6.674;2023-07-30T02:27:56;10.15;;;2.13;;
55212;SDS011;41083;52.932;6.674;2023-07-30T02:30:22;5.97;;;1.60;;
55212;SDS011;41083;52.932;6.674;2023-07-30T02:32:48;5.80;;;1.50;;
55212;SDS011;41083;52.932;6.674;2023-07-30T02:35:13;4.00;;;1.50;;
55212;SDS011;41083;52.932;6.674;2023-07-30T02:37:39;3.55;;;1.48;;
55212;SDS011;41083;52.932;6.674;2023-07-30T02:40:05;7.05;;;1.38;;
55212;SDS011;41083;52.932;6.674;2023-07-30T02:42:31;6.28;;;1.42;;
55212;SDS011;41083;52.932;6.674;2023-07-30T02:44:56;8.20;;;1.60;;
55212;SDS011;41083;52.932;6.674;2023-07-30T02:47:22;3.70;;;1.13;;
55212;SDS011;41083;52.932;6.674;2023-07-30T02:49:47;4.32;;;1.10;;
55212;SDS011;41083;52.932;6.674;2023-07-30T02:52:13;8.15;;;1.30;;
55212;SDS011;41083;52.932;6.674;2023-07-30T02:54:39;6.32;;;1.60;;
55212;SDS011;41083;52.932;6.674;2023-07-30T02:57:04;3.75;;;1.42;;
55212;SDS011;41083;52.932;6.674;2023-07-30T02:59:30;5.32;;;1.27;;
55212;SDS011;41083;52.932;6.674;2023-07-30T03:01:56;2.88;;;1.55;;
55212;SDS011;41083;52.932;6.674;2023-07-30T03:04:21;5.03;;;1.50;;
55212;SDS011;41083;52.932;6.674;2023-07-30T03:06:47;9.88;;;1.75;;
55212;SDS011;41083;52.932;6.674;2023-07-30T03:09:12;2.92;;;1.20;;
55212;SDS011;41083;52.932;6.674;2023-07-30T03:11:38;4.55;;;1.80;;
55212;SDS011;41083;52.932;6.674;2023-07-30T03:14:03;4.90;;;1.50;;
55212;SDS011;41083;52.932;6.674;2023-07-30T03:16:29;5.00;;;1.60;;
55212;SDS011;41083;52.932;6.674;2023-07-30T03:18:54;4.30;;;1.38;;
55212;SDS011;41083;52.932;6.674;2023-07-30T03:21:20;6.75;;;1.30;;
55212;SDS011;41083;52.932;6.674;2023-07-30T03:23:46;5.45;;;1.30;;
55212;SDS011;41083;52.932;6.674;2023-07-30T03:26:13;2.72;;;1.13;;
55212;SDS011;41083;52.932;6.674;2023-07-30T03:28:39;4.28;;;1.30;;
55212;SDS011;41083;52.932;6.674;2023-07-30T03:31:04;4.05;;;1.00;;
55212;SDS011;41083;52.932;6.674;2023-07-30T03:33:30;3.83;;;1.20;;
55212;SDS011;41083;52.932;6.674;2023-07-30T03:35:56;3.28;;;1.25;;
55212;SDS011;41083;52.932;6.674;2023-07-30T03:38:22;5.60;;;1.70;;
55212;SDS011;41083;52.932;6.674;2023-07-30T03:40:47;4.53;;;1.63;;
55212;SDS011;41083;52.932;6.674;2023-07-30T03:43:13;4.93;;;1.30;;
55212;SDS011;41083;52.932;6.674;2023-07-30T03:45:39;5.13;;;1.17;;
55212;SDS011;41083;52.932;6.674;2023-07-30T03:48:05;5.07;;;1.13;;
55212;SDS011;41083;52.932;6.674;2023-07-30T03:50:30;3.42;;;1.30;;
55212;SDS011;41083;52.932;6.674;2023-07-30T03:52:56;4.03;;;1.38;;
55212;SDS011;41083;52.932;6.674;2023-07-30T03:55:23;5.47;;;1.55;;
55212;SDS011;41083;52.932;6.674;2023-07-30T03:57:49;3.22;;;1.10;;
55212;SDS011;41083;52.932;6.674;2023-07-30T04:00:14;4.78;;;1.40;;
55212;SDS011;41083;52.932;6.674;2023-07-30T04:02:40;6.22;;;1.35;;
55212;SDS011;41083;52.932;6.674;2023-07-30T04:05:06;4.57;;;1.38;;
55212;SDS011;41083;52.932;6.674;2023-07-30T04:07:31;5.63;;;1.17;;
55212;SDS011;41083;52.932;6.674;2023-07-30T04:09:57;5.65;;;1.00;;
55212;SDS011;41083;52.932;6.674;2023-07-30T04:12:22;8.20;;;1.17;;
55212;SDS011;41083;52.932;6.674;2023-07-30T04:14:48;7.40;;;1.35;;
55212;SDS011;41083;52.932;6.674;2023-07-30T04:17:14;4.40;;;0.95;;
55212;SDS011;41083;52.932;6.674;2023-07-30T04:19:39;5.20;;;1.33;;
55212;SDS011;41083;52.932;6.674;2023-07-30T04:22:05;4.78;;;1.23;;
55212;SDS011;41083;52.932;6.674;2023-07-30T04:24:30;4.32;;;1.13;;
55212;SDS011;41083;52.932;6.674;2023-07-30T04:26:56;4.53;;;1.23;;
55212;SDS011;41083;52.932;6.674;2023-07-30T04:29:23;4.13;;;1.33;;
55212;SDS011;41083;52.932;6.674;2023-07-30T04:31:48;5.55;;;1.20;;
55212;SDS011;41083;52.932;6.674;2023-07-30T04:34:14;3.10;;;1.10;;
55212;SDS011;41083;52.932;6.674;2023-07-30T04:36:40;3.67;;;0.90;;
55212;SDS011;41083;52.932;6.674;2023-07-30T04:39:05;6.20;;;1.30;;
55212;SDS011;41083;52.932;6.674;2023-07-30T04:41:31;4.53;;;1.38;;
55212;SDS011;41083;52.932;6.674;2023-07-30T04:43:56;3.30;;;1.30;;
55212;SDS011;41083;52.932;6.674;2023-07-30T04:46:22;4.60;;;1.50;;
55212;SDS011;41083;52.932;6.674;2023-07-30T04:48:47;2.50;;;0.90;;
55212;SDS011;41083;52.932;6.674;2023-07-30T04:51:13;3.72;;;1.05;;
55212;SDS011;41083;52.932;6.674;2023-07-30T04:53:39;5.65;;;1.20;;
55212;SDS011;41083;52.932;6.674;2023-07-30T04:56:04;8.65;;;1.20;;
55212;SDS011;41083;52.932;6.674;2023-07-30T04:58:30;9.40;;;1.60;;
55212;SDS011;41083;52.932;6.674;2023-07-30T05:00:55;5.13;;;1.45;;
55212;SDS011;41083;52.932;6.674;2023-07-30T05:03:21;5.65;;;1.35;;
55212;SDS011;41083;52.932;6.674;2023-07-30T05:05:47;5.03;;;1.20;;
55212;SDS011;41083;52.932;6.674;2023-07-30T05:08:12;6.63;;;1.33;;
55212;SDS011;41083;52.932;6.674;2023-07-30T05:10:38;7.10;;;1.52;;
55212;SDS011;41083;52.932;6.674;2023-07-30T05:13:03;3.40;;;1.35;;
55212;SDS011;41083;52.932;6.674;2023-07-30T05:15:29;9.63;;;1.50;;
55212;SDS011;41083;52.932;6.674;2023-07-30T05:17:54;8.52;;;1.40;;
55212;SDS011;41083;52.932;6.674;2023-07-30T05:20:20;5.25;;;1.73;;
55212;SDS011;41083;52.932;6.674;2023-07-30T05:22:45;5.97;;;1.38;;
55212;SDS011;41083;52.932;6.674;2023-07-30T05:25:11;4.68;;;1.30;;
55212;SDS011;41083;52.932;6.674;2023-07-30T05:27:37;7.45;;;1.48;;
55212;SDS011;41083;52.932;6.674;2023-07-30T05:30:02;4.18;;;1.30;;
55212;SDS011;41083;52.932;6.674;2023-07-30T05:32:28;6.38;;;1.55;;
55212;SDS011;41083;52.932;6.674;2023-07-30T05:34:54;5.05;;;1.33;;
55212;SDS011;41083;52.932;6.674;2023-07-30T05:37:19;6.68;;;1.40;;
55212;SDS011;41083;52.932;6.674;2023-07-30T05:39:45;4.78;;;1.23;;
55212;SDS011;41083;52.932;6.674;2023-07-30T05:42:11;9.27;;;1.58;;
55212;SDS011;41083;52.932;6.674;2023-07-30T05:44:36;7.32;;;1.83;;
55212;SDS011;41083;52.932;6.674;2023-07-30T05:47:02;7.22;;;1.55;;
55212;SDS011;41083;52.932;6.674;2023-07-30T05:49:28;6.10;;;1.45;;
55212;SDS011;41083;52.932;6.674;2023-07-30T05:51:53;5.55;;;1.92;;
55212;SDS011;41083;52.932;6.674;2023-07-30T05:54:19;4.85;;;1.23;;
55212;SDS011;41083;52.932;6.674;2023-07-30T05:56:44;7.05;;;1.42;;
55212;SDS011;41083;52.932;6.674;2023-07-30T05:59:10;6.07;;;1.48;;
55212;SDS011;41083;52.932;6.674;2023-07-30T06:01:35;6.28;;;1.50;;
55212;SDS011;41083;52.932;6.674;2023-07-30T06:04:01;5.28;;;1.50;;
55212;SDS011;41083;52.932;6.674;2023-07-30T06:06:26;6.43;;;1.40;;
55212;SDS011;41083;52.932;6.674;2023-07-30T06:08:53;4.55;;;1.42;;
55212;SDS011;41083;52.932;6.674;2023-07-30T06:11:19;6.05;;;1.40;;
55212;SDS011;41083;52.932;6.674;2023-07-30T06:13:45;8.48;;;1.42;;
55212;SDS011;41083;52.932;6.674;2023-07-30T06:16:10;4.88;;;1.33;;
55212;SDS011;41083;52.932;6.674;2023-07-30T06:18:36;8.63;;;1.55;;
55212;SDS011;41083;52.932;6.674;2023-07-30T06:21:02;6.53;;;1.45;;
55212;SDS011;41083;52.932;6.674;2023-07-30T06:23:27;7.85;;;1.60;;
55212;SDS011;41083;52.932;6.674;2023-07-30T06:25:53;7.05;;;2.05;;
55212;SDS011;41083;52.932;6.674;2023-07-30T06:28:19;3.90;;;1.42;;
55212;SDS011;41083;52.932;6.674;2023-07-30T06:30:44;6.68;;;1.88;;
55212;SDS011;41083;52.932;6.674;2023-07-30T06:33:10;5.00;;;1.77;;
55212;SDS011;41083;52.932;6.674;2023-07-30T06:35:35;10.02;;;1.70;;
55212;SDS011;41083;52.932;6.674;2023-07-30T06:38:01;9.35;;;1.73;;
55212;SDS011;41083;52.932;6.674;2023-07-30T06:40:27;7.45;;;1.80;;
55212;SDS011;41083;52.932;6.674;2023-07-30T06:42:53;6.38;;;1.75;;
55212;SDS011;41083;52.932;6.674;2023-07-30T06:45:18;3.53;;;1.10;;
55212;SDS011;41083;52.932;6.674;2023-07-30T06:47:44;5.68;;;1.42;;
55212;SDS011;41083;52.932;6.674;2023-07-30T06:50:10;12.43;;;2.00;;
55212;SDS011;41083;52.932;6.674;2023-07-30T06:52:36;7.40;;;1.48;;
55212;SDS011;41083;52.932;6.674;2023-07-30T06:55:02;8.68;;;1.48;;
55212;SDS011;41083;52.932;6.674;2023-07-30T06:57:28;7.25;;;1.60;;
55212;SDS011;41083;52.932;6.674;2023-07-30T06:59:54;10.32;;;1.73;;
55212;SDS011;41083;52.932;6.674;2023-07-30T07:02:20;8.73;;;1.77;;
55212;SDS011;41083;52.932;6.674;2023-07-30T07:04:46;4.30;;;1.35;;
55212;SDS011;41083;52.932;6.674;2023-07-30T07:07:11;7.97;;;2.10;;
55212;SDS011;41083;52.932;6.674;2023-07-30T07:09:37;6.22;;;1.60;;
55212;SDS011;41083;52.932;6.674;2023-07-30T07:12:02;3.55;;;1.40;;
55212;SDS011;41083;52.932;6.674;2023-07-30T07:14:28;8.18;;;1.38;;
55212;SDS011;41083;52.932;6.674;2023-07-30T07:16:54;7.32;;;1.40;;
55212;SDS011;41083;52.932;6.674;2023-07-30T07:19:21;7.93;;;1.70;;
55212;SDS011;41083;52.932;6.674;2023-07-30T07:21:46;6.15;;;1.13;;
55212;SDS011;41083;52.932;6.674;2023-07-30T07:24:12;4.80;;;1.10;;
55212;SDS011;41083;52.932;6.674;2023-07-30T07:26:37;5.03;;;1.35;;
55212;SDS011;41083;52.932;6.674;2023-07-30T07:29:03;4.78;;;1.10;;
55212;SDS011;41083;52.932;6.674;2023-07-30T07:31:29;5.28;;;1.40;;
55212;SDS011;41083;52.932;6.674;2023-07-30T07:33:54;12.25;;;1.77;;
55212;SDS011;41083;52.932;6.674;2023-07-30T07:36:20;8.20;;;0.95;;
55212;SDS011;41083;52.932;6.674;2023-07-30T07:38:46;6.80;;;1.42;;
55212;SDS011;41083;52.932;6.674;2023-07-30T07:41:15;5.18;;;1.17;;
55212;SDS011;41083;52.932;6.674;2023-07-30T07:43:44;6.72;;;1.08;;
55212;SDS011;41083;52.932;6.674;2023-07-30T07:46:11;2.65;;;0.93;;
55212;SDS011;41083;52.932;6.674;2023-07-30T07:48:43;4.22;;;1.00;;
55212;SDS011;41083;52.932;6.674;2023-07-30T07:51:09;5.93;;;0.95;;
55212;SDS011;41083;52.932;6.674;2023-07-30T07:53:36;3.88;;;0.98;;
55212;SDS011;41083;52.932;6.674;2023-07-30T07:56:02;3.72;;;1.10;;
55212;SDS011;41083;52.932;6.674;2023-07-30T07:58:27;5.55;;;1.30;;
55212;SDS011;41083;52.932;6.674;2023-07-30T08:00:56;4.43;;;1.02;;
55212;SDS011;41083;52.932;6.674;2023-07-30T08:03:22;8.25;;;1.02;;
55212;SDS011;41083;52.932;6.674;2023-07-30T08:05:48;7.22;;;0.95;;
55212;SDS011;41083;52.932;6.674;2023-07-30T08:08:14;9.27;;;1.30;;
55212;SDS011;41083;52.932;6.674;2023-07-30T08:10:40;2.83;;;1.10;;
55212;SDS011;41083;52.932;6.674;2023-07-30T08:13:09;8.45;;;1.40;;
55212;SDS011;41083;52.932;6.674;2023-07-30T08:15:35;4.50;;;1.05;;
55212;SDS011;41083;52.932;6.674;2023-07-30T08:18:01;3.03;;;0.95;;
55212;SDS011;41083;52.932;6.674;2023-07-30T08:20:26;5.10;;;1.38;;
55212;SDS011;41083;52.932;6.674;2023-07-30T08:22:52;4.70;;;0.90;;
55212;SDS011;41083;52.932;6.674;2023-07-30T08:25:17;2.67;;;1.15;;
55212;SDS011;41083;52.932;6.674;2023-07-30T08:27:43;10.73;;;1.00;;
55212;SDS011;41083;52.932;6.674;2023-07-30T08:30:09;4.70;;;1.08;;
55212;SDS011;41083;52.932;6.674;2023-07-30T08:32:35;3.42;;;0.80;;
55212;SDS011;41083;52.932;6.674;2023-07-30T08:35:01;4.75;;;1.05;;
55212;SDS011;41083;52.932;6.674;2023-07-30T08:37:27;6.82;;;0.93;;
55212;SDS011;41083;52.932;6.674;2023-07-30T08:39:53;5.32;;;0.80;;
55212;SDS011;41083;52.932;6.674;2023-07-30T08:42:19;3.05;;;0.90;;
55212;SDS011;41083;52.932;6.674;2023-07-30T08:44:44;5.00;;;0.80;;
55212;SDS011;41083;52.932;6.674;2023-07-30T08:47:10;3.47;;;0.47;;
55212;SDS011;41083;52.932;6.674;2023-07-30T08:49:36;1.95;;;0.50;;
55212;SDS011;41083;52.932;6.674;2023-07-30T08:52:02;2.60;;;0.77;;
55212;SDS011;41083;52.932;6.674;2023-07-30T08:54:29;3.95;;;1.05;;
55212;SDS011;41083;52.932;6.674;2023-07-30T08:56:56;3.40;;;1.13;;
55212;SDS011;41083;52.932;6.674;2023-07-30T08:59:23;4.07;;;0.85;;
55212;SDS011;41083;52.932;6.674;2023-07-30T09:01:51;7.50;;;0.90;;
55212;SDS011;41083;52.932;6.674;2023-07-30T09:04:18;6.50;;;1.27;;
55212;SDS011;41083;52.932;6.674;2023-07-30T09:06:49;5.15;;;0.80;;
55212;SDS011;41083;52.932;6.674;2023-07-30T09:09:15;3.25;;;0.95;;
55212;SDS011;41083;52.932;6.674;2023-07-30T09:11:40;2.83;;;1.00;;
55212;SDS011;41083;52.932;6.674;2023-07-30T09:14:06;2.55;;;0.93;;
55212;SDS011;41083;52.932;6.674;2023-07-30T09:16:33;2.25;;;0.68;;
55212;SDS011;41083;52.932;6.674;2023-07-30T09:18:58;2.78;;;0.77;;
55212;SDS011;41083;52.932;6.674;2023-07-30T09:21:33;3.30;;;0.93;;
55212;SDS011;41083;52.932;6.674;2023-07-30T09:24:03;5.38;;;1.05;;
55212;SDS011;41083;52.932;6.674;2023-07-30T09:26:44;5.32;;;0.60;;
55212;SDS011;41083;52.932;6.674;2023-07-30T09:29:11;4.57;;;0.80;;
55212;SDS011;41083;52.932;6.674;2023-07-30T09:31:47;3.58;;;0.70;;
55212;SDS011;41083;52.932;6.674;2023-07-30T09:34:17;4.20;;;0.70;;
55212;SDS011;41083;52.932;6.674;2023-07-30T09:36:44;4.90;;;1.48;;
55212;SDS011;41083;52.932;6.674;2023-07-30T09:39:17;4.15;;;0.90;;
55212;SDS011;41083;52.932;6.674;2023-07-30T09:41:49;5.07;;;0.80;;
55212;SDS011;41083;52.932;6.674;2023-07-30T09:44:17;3.83;;;0.93;;
55212;SDS011;41083;52.932;6.674;2023-07-30T09:46:45;2.50;;;0.73;;
55212;SDS011;41083;52.932;6.674;2023-07-30T09:49:12;1.63;;;0.68;;
55212;SDS011;41083;52.932;6.674;2023-07-30T09:51:38;1.63;;;0.57;;
55212;SDS011;41083;52.932;6.674;2023-07-30T09:54:07;1.15;;;0.50;;
55212;SDS011;41083;52.932;6.674;2023-07-30T09:56:37;0.82;;;0.55;;
55212;SDS011;41083;52.932;6.674;2023-07-30T09:59:04;1.77;;;0.70;;
55212;SDS011;41083;52.932;6.674;2023-07-30T10:01:31;2.67;;;0.50;;
55212;SDS011;41083;52.932;6.674;2023-07-30T10:04:01;4.70;;;0.70;;
55212;SDS011;41083;52.932;6.674;2023-07-30T10:06:32;1.58;;;0.60;;
55212;SDS011;41083;52.932;6.674;2023-07-30T10:09:01;1.35;;;0.80;;
55212;SDS011;41083;52.932;6.674;2023-07-30T10:11:27;5.47;;;0.85;;
55212;SDS011;41083;52.932;6.674;2023-07-30T10:13:53;2.80;;;1.15;;
55212;SDS011;41083;52.932;6.674;2023-07-30T10:16:24;2.95;;;0.90;;
55212;SDS011;41083;52.932;6.674;2023-07-30T10:18:51;4.07;;;1.23;;
55212;SDS011;41083;52.932;6.674;2023-07-30T10:21:22;1.55;;;0.73;;
55212;SDS011;41083;52.932;6.674;2023-07-30T10:26:28;3.53;;;0.70;;
55212;SDS011;41083;52.932;6.674;2023-07-30T10:31:40;2.38;;;0.82;;
55212;SDS011;41083;52.932;6.674;2023-07-30T10:34:07;3.85;;;1.10;;
55212;SDS011;41083;52.932;6.674;2023-07-30T10:36:36;5.78;;;0.93;;
55212;SDS011;41083;52.932;6.674;2023-07-30T10:39:10;6.03;;;0.97;;
55212;SDS011;41083;52.932;6.674;2023-07-30T10:41:37;3.67;;;1.20;;
55212;SDS011;41083;52.932;6.674;2023-07-30T10:44:03;3.42;;;1.00;;
55212;SDS011;41083;52.932;6.674;2023-07-30T10:46:28;7.32;;;1.40;;
55212;SDS011;41083;52.932;6.674;2023-07-30T10:48:54;6.63;;;1.15;;
55212;SDS011;41083;52.932;6.674;2023-07-30T10:51:20;3.90;;;0.90;;
55212;SDS011;41083;52.932;6.674;2023-07-30T10:53:47;3.70;;;1.05;;
55212;SDS011;41083;52.932;6.674;2023-07-30T10:56:15;4.55;;;1.20;;
55212;SDS011;41083;52.932;6.674;2023-07-30T10:58:43;3.40;;;0.73;;
55212;SDS011;41083;52.932;6.674;2023-07-30T11:01:13;4.55;;;1.10;;
55212;SDS011;41083;52.932;6.674;2023-07-30T11:03:39;8.38;;;1.13;;
55212;SDS011;41083;52.932;6.674;2023-07-30T11:06:05;5.20;;;0.90;;
55212;SDS011;41083;52.932;6.674;2023-07-30T11:08:38;4.40;;;0.95;;
55212;SDS011;41083;52.932;6.674;2023-07-30T11:11:05;2.97;;;1.20;;
55212;SDS011;41083;52.932;6.674;2023-07-30T11:13:49;3.90;;;0.90;;
55212;SDS011;41083;52.932;6.674;2023-07-30T11:16:15;4.22;;;0.80;;
55212;SDS011;41083;52.932;6.674;2023-07-30T11:18:41;3.78;;;1.45;;
55212;SDS011;41083;52.932;6.674;2023-07-30T11:21:12;4.07;;;1.02;;
55212;SDS011;41083;52.932;6.674;2023-07-30T11:23:40;2.67;;;1.17;;
55212;SDS011;41083;52.932;6.674;2023-07-30T11:26:07;8.30;;;1.15;;
55212;SDS011;41083;52.932;6.674;2023-07-30T11:28:37;5.78;;;2.00;;
55212;SDS011;41083;52.932;6.674;2023-07-30T11:31:05;8.13;;;1.20;;
55212;SDS011;41083;52.932;6.674;2023-07-30T11:33:32;6.93;;;0.90;;
55212;SDS011;41083;52.932;6.674;2023-07-30T11:36:03;3.78;;;1.33;;
55212;SDS011;41083;52.932;6.674;2023-07-30T11:38:29;6.00;;;0.98;;
55212;SDS011;41083;52.932;6.674;2023-07-30T11:40:56;2.95;;;0.65;;
55212;SDS011;41083;52.932;6.674;2023-07-30T11:43:22;3.03;;;0.73;;
55212;SDS011;41083;52.932;6.674;2023-07-30T11:45:49;6.50;;;1.10;;
55212;SDS011;41083;52.932;6.674;2023-07-30T11:48:30;3.20;;;0.73;;
55212;SDS011;41083;52.932;6.674;2023-07-30T11:50:56;3.85;;;0.93;;
55212;SDS011;41083;52.932;6.674;2023-07-30T11:53:21;2.35;;;0.68;;
55212;SDS011;41083;52.932;6.674;2023-07-30T11:55:47;4.70;;;0.90;;
55212;SDS011;41083;52.932;6.674;2023-07-30T11:58:13;3.83;;;0.70;;
55212;SDS011;41083;52.932;6.674;2023-07-30T12:00:39;3.50;;;0.70;;
55212;SDS011;41083;52.932;6.674;2023-07-30T12:03:07;3.03;;;0.70;;
55212;SDS011;41083;52.932;6.674;2023-07-30T12:05:38;4.43;;;0.82;;
55212;SDS011;41083;52.932;6.674;2023-07-30T12:08:13;1.95;;;0.57;;
55212;SDS011;41083;52.932;6.674;2023-07-30T12:10:42;2.58;;;0.70;;
55212;SDS011;41083;52.932;6.674;2023-07-30T12:13:17;3.15;;;0.63;;
55212;SDS011;41083;52.932;6.674;2023-07-30T12:15:54;4.47;;;0.63;;
55212;SDS011;41083;52.932;6.674;2023-07-30T12:18:21;2.08;;;0.60;;
55212;SDS011;41083;52.932;6.674;2023-07-30T12:20:48;2.25;;;0.60;;
55212;SDS011;41083;52.932;6.674;2023-07-30T12:23:15;2.92;;;0.80;;
55212;SDS011;41083;52.932;6.674;2023-07-30T12:25:42;6.63;;;0.75;;
55212;SDS011;41083;52.932;6.674;2023-07-30T12:28:07;6.88;;;0.80;;
55212;SDS011;41083;52.932;6.674;2023-07-30T12:30:33;5.43;;;0.80;;
55212;SDS011;41083;52.932;6.674;2023-07-30T12:33:00;3.40;;;0.57;;
55212;SDS011;41083;52.932;6.674;2023-07-30T12:35:26;2.05;;;0.63;;
55212;SDS011;41083;52.932;6.674;2023-07-30T12:37:51;2.55;;;0.57;;
55212;SDS011;41083;52.932;6.674;2023-07-30T12:40:17;2.58;;;0.70;;
55212;SDS011;41083;52.932;6.674;2023-07-30T12:42:43;3.80;;;0.70;;
55212;SDS011;41083;52.932;6.674;2023-07-30T12:45:08;3.97;;;0.80;;
55212;SDS011;41083;52.932;6.674;2023-07-30T12:47:34;4.35;;;0.73;;
55212;SDS011;41083;52.932;6.674;2023-07-30T12:50:01;4.60;;;0.88;;
55212;SDS011;41083;52.932;6.674;2023-07-30T12:52:28;5.70;;;1.08;;
55212;SDS011;41083;52.932;6.674;2023-07-30T12:54:54;3.30;;;0.88;;
55212;SDS011;41083;52.932;6.674;2023-07-30T12:57:19;2.58;;;0.30;;
55212;SDS011;41083;52.932;6.674;2023-07-30T12:59:45;1.88;;;0.40;;
55212;SDS011;41083;52.932;6.674;2023-07-30T13:02:10;0.57;;;0.30;;
55212;SDS011;41083;52.932;6.674;2023-07-30T13:04:36;0.43;;;0.30;;
55212;SDS011;41083;52.932;6.674;2023-07-30T13:07:01;0.77;;;0.50;;
55212;SDS011;41083;52.932;6.674;2023-07-30T13:09:28;5.78;;;0.60;;
55212;SDS011;41083;52.932;6.674;2023-07-30T13:11:53;2.92;;;0.85;;
55212;SDS011;41083;52.932;6.674;2023-07-30T13:14:19;3.42;;;0.68;;
55212;SDS011;41083;52.932;6.674;2023-07-30T13:16:45;3.58;;;0.40;;
55212;SDS011;41083;52.932;6.674;2023-07-30T13:19:10;2.13;;;0.60;;
55212;SDS011;41083;52.932;6.674;2023-07-30T13:24:02;3.10;;;1.00;;
55212;SDS011;41083;52.932;6.674;2023-07-30T13:26:28;1.95;;;0.52;;
55212;SDS011;41083;52.932;6.674;2023-07-30T13:28:53;2.38;;;0.60;;
55212;SDS011;41083;52.932;6.674;2023-07-30T13:31:19;3.80;;;0.70;;
55212;SDS011;41083;52.932;6.674;2023-07-30T13:33:45;6.43;;;1.00;;
55212;SDS011;41083;52.932;6.674;2023-07-30T13:36:12;2.97;;;0.43;;
55212;SDS011;41083;52.932;6.674;2023-07-30T13:38:38;2.42;;;0.93;;
55212;SDS011;41083;52.932;6.674;2023-07-30T13:41:04;3.53;;;0.60;;
55212;SDS011;41083;52.932;6.674;2023-07-30T13:43:30;2.45;;;0.50;;
55212;SDS011;41083;52.932;6.674;2023-07-30T13:45:56;3.88;;;1.00;;
55212;SDS011;41083;52.932;6.674;2023-07-30T13:48:23;6.97;;;0.90;;
55212;SDS011;41083;52.932;6.674;2023-07-30T13:50:50;1.65;;;0.50;;
55212;SDS011;41083;52.932;6.674;2023-07-30T13:53:16;2.88;;;0.60;;
55212;SDS011;41083;52.932;6.674;2023-07-30T13:55:42;3.22;;;0.70;;
55212;SDS011;41083;52.932;6.674;2023-07-30T13:58:08;1.90;;;0.43;;
55212;SDS011;41083;52.932;6.674;2023-07-30T14:00:34;3.78;;;0.70;;
55212;SDS011;41083;52.932;6.674;2023-07-30T14:03:00;1.58;;;0.70;;
55212;SDS011;41083;52.932;6.674;2023-07-30T14:05:26;5.75;;;0.73;;
55212;SDS011;41083;52.932;6.674;2023-07-30T14:07:53;2.05;;;0.57;;
55212;SDS011;41083;52.932;6.674;2023-07-30T14:10:21;5.15;;;0.75;;
55212;SDS011;41083;52.932;6.674;2023-07-30T14:12:48;4.80;;;0.68;;
55212;SDS011;41083;52.932;6.674;2023-07-30T14:15:14;1.80;;;0.63;;
55212;SDS011;41083;52.932;6.674;2023-07-30T14:17:40;2.17;;;0.50;;
55212;SDS011;41083;52.932;6.674;2023-07-30T14:20:07;3.80;;;0.75;;
55212;SDS011;41083;52.932;6.674;2023-07-30T14:22:33;2.42;;;0.30;;
55212;SDS011;41083;52.932;6.674;2023-07-30T14:25:00;1.70;;;0.38;;
55212;SDS011;41083;52.932;6.674;2023-07-30T14:27:26;0.93;;;0.25;;
55212;SDS011;41083;52.932;6.674;2023-07-30T14:29:51;0.63;;;0.30;;
55212;SDS011;41083;52.932;6.674;2023-07-30T14:32:19;2.92;;;0.30;;
55212;SDS011;41083;52.932;6.674;2023-07-30T14:34:45;5.15;;;0.50;;
55212;SDS011;41083;52.932;6.674;2023-07-30T14:37:10;2.65;;;0.43;;
55212;SDS011;41083;52.932;6.674;2023-07-30T14:39:36;0.85;;;0.50;;
55212;SDS011;41083;52.932;6.674;2023-07-30T14:42:02;1.13;;;0.40;;
55212;SDS011;41083;52.932;6.674;2023-07-30T14:44:28;1.65;;;0.60;;
55212;SDS011;41083;52.932;6.674;2023-07-30T14:46:53;1.63;;;0.45;;
55212;SDS011;41083;52.932;6.674;2023-07-30T14:49:19;3.20;;;0.52;;
55212;SDS011;41083;52.932;6.674;2023-07-30T14:51:45;2.55;;;0.50;;